createdAt,value
2022-10-06T00:11:49.266Z,100952.11
2022-10-06T00:41:52.011Z,100933.66
2022-10-06T01:11:57.822Z,100959.78
2022-10-06T01:42:00.510Z,100974.33
2022-10-06T02:12:04.607Z,100989.48
2022-10-06T02:42:07.419Z,101014.78
2022-10-06T03:12:11.589Z,101044.04
2022-10-06T03:42:14.289Z,101073.80
2022-10-06T04:12:18.858Z,101092.14
2022-10-06T04:42:21.588Z,101115.70
2022-10-06T05:12:25.836Z,101147.33
2022-10-06T05:42:29.852Z,101185.19
2022-10-06T06:12:36.124Z,101228.80
2022-10-06T06:42:38.953Z,101282.34
2022-10-06T07:12:43.795Z,101355.49
2022-10-06T07:42:46.592Z,101382.14
2022-10-06T08:12:51.446Z,101443.25
2022-10-06T08:42:54.511Z,101500.41
2022-10-06T09:12:57.993Z,101535.14
2022-10-06T09:43:01.291Z,101562.68
2022-10-06T10:13:04.560Z,101621.16
2022-10-06T10:43:08.042Z,101653.55
2022-10-06T11:13:11.638Z,101678.45
2022-10-06T11:43:14.813Z,101709.84
2022-10-06T12:14:00.134Z,101735.63
2022-10-06T12:43:41.823Z,101760.61
2022-10-06T13:13:46.090Z,101789.72
2022-10-06T13:43:49.211Z,101809.38
2022-10-06T14:13:52.916Z,101839.41
2022-10-06T14:43:55.627Z,101861.22
2022-10-06T15:13:58.653Z,101880.05
2022-10-06T15:44:01.839Z,101913.84
2022-10-06T16:14:05.194Z,101937.70
2022-10-06T16:44:08.322Z,101980.00
2022-10-06T17:14:11.967Z,102023.73
2022-10-06T17:44:15.036Z,102021.91
2022-10-06T18:14:18.416Z,102039.90
2022-10-06T18:44:21.754Z,102053.09
2022-10-06T19:14:25.277Z,102080.84
2022-10-06T19:44:28.639Z,102083.31
2022-10-06T20:14:32.007Z,102126.50
2022-10-06T20:44:35.590Z,102130.55
2022-10-06T21:14:38.931Z,102142.41
2022-10-06T21:44:42.070Z,102135.11
2022-10-06T22:14:45.254Z,102144.14
2022-10-06T22:44:48.794Z,102126.41
2022-10-06T23:14:52.028Z,102134.53
2022-10-06T23:44:55.363Z,102125.53
